sensor_id;sensor_type;location;lat;lon;timestamp;P1;durP1;ratioP1;P2;durP2;ratioP2
61373;SDS011;47242;48.158;-1.586;2023-04-03T04:30:17;6.63;;;2.97;;
61373;SDS011;47242;48.158;-1.586;2023-04-03T04:32:42;6.05;;;4.43;;
61373;SDS011;47242;48.158;-1.586;2023-04-03T04:35:08;8.43;;;3.05;;
61373;SDS011;47242;48.158;-1.586;2023-04-03T04:37:34;9.20;;;4.75;;
61373;SDS011;47242;48.158;-1.586;2023-04-03T04:40:00;10.57;;;4.15;;
61373;SDS011;47242;48.158;-1.586;2023-04-03T04:42:26;4.22;;;3.72;;
61373;SDS011;47242;48.158;-1.586;2023-04-03T04:44:51;15.32;;;4.40;;
61373;SDS011;47242;48.158;-1.586;2023-04-03T04:47:17;7.53;;;4.82;;
61373;SDS011;47242;48.158;-1.586;2023-04-03T04:49:42;6.70;;;4.10;;
61373;SDS011;47242;48.158;-1.586;2023-04-03T04:52:08;4.85;;;3.90;;
61373;SDS011;47242;48.158;-1.586;2023-04-03T04:54:34;9.43;;;4.43;;
61373;SDS011;47242;48.158;-1.586;2023-04-03T04:57:00;7.85;;;4.10;;
61373;SDS011;47242;48.158;-1.586;2023-04-03T04:59:25;5.18;;;3.92;;
61373;SDS011;47242;48.158;-1.586;2023-04-03T05:01:51;5.80;;;3.63;;
61373;SDS011;47242;48.158;-1.586;2023-04-03T05:04:16;10.05;;;4.30;;
61373;SDS011;47242;48.158;-1.586;2023-04-03T05:06:42;8.20;;;4.03;;
61373;SDS011;47242;48.158;-1.586;2023-04-03T05:09:08;5.93;;;3.50;;
61373;SDS011;47242;48.158;-1.586;2023-04-03T05:11:34;6.15;;;4.03;;
61373;SDS011;47242;48.158;-1.586;2023-04-03T05:14:00;7.55;;;4.13;;
61373;SDS011;47242;48.158;-1.586;2023-04-03T05:16:26;11.85;;;4.90;;
61373;SDS011;47242;48.158;-1.586;2023-04-03T05:18:51;8.85;;;4.63;;
61373;SDS011;47242;48.158;-1.586;2023-04-03T05:21:17;5.28;;;4.65;;
61373;SDS011;47242;48.158;-1.586;2023-04-03T05:23:48;8.05;;;4.10;;
61373;SDS011;47242;48.158;-1.586;2023-04-03T05:26:13;5.00;;;3.60;;
61373;SDS011;47242;48.158;-1.586;2023-04-03T05:28:39;4.13;;;3.58;;
61373;SDS011;47242;48.158;-1.586;2023-04-03T05:31:05;6.85;;;3.70;;
61373;SDS011;47242;48.158;-1.586;2023-04-03T05:33:31;7.50;;;3.55;;
61373;SDS011;47242;48.158;-1.586;2023-04-03T05:36:01;7.35;;;3.90;;
61373;SDS011;47242;48.158;-1.586;2023-04-03T05:38:30;4.97;;;4.32;;
61373;SDS011;47242;48.158;-1.586;2023-04-03T05:40:56;7.45;;;4.25;;
61373;SDS011;47242;48.158;-1.586;2023-04-03T05:43:22;7.40;;;4.35;;
61373;SDS011;47242;48.158;-1.586;2023-04-03T05:45:48;7.88;;;3.97;;
61373;SDS011;47242;48.158;-1.586;2023-04-03T05:48:13;9.93;;;6.07;;
61373;SDS011;47242;48.158;-1.586;2023-04-03T05:50:39;7.80;;;4.82;;
61373;SDS011;47242;48.158;-1.586;2023-04-03T05:53:07;8.70;;;4.80;;
61373;SDS011;47242;48.158;-1.586;2023-04-03T05:55:42;10.35;;;5.55;;
61373;SDS011;47242;48.158;-1.586;2023-04-03T05:58:07;5.07;;;4.40;;
61373;SDS011;47242;48.158;-1.586;2023-04-03T06:00:33;7.97;;;7.10;;
61373;SDS011;47242;48.158;-1.586;2023-04-03T06:02:59;8.60;;;6.90;;
61373;SDS011;47242;48.158;-1.586;2023-04-03T06:05:24;8.75;;;5.07;;
61373;SDS011;47242;48.158;-1.586;2023-04-03T06:07:50;6.40;;;4.63;;
61373;SDS011;47242;48.158;-1.586;2023-04-03T06:10:16;6.65;;;4.80;;
61373;SDS011;47242;48.158;-1.586;2023-04-03T06:12:42;11.23;;;6.80;;
61373;SDS011;47242;48.158;-1.586;2023-04-03T06:15:08;7.13;;;4.60;;
61373;SDS011;47242;48.158;-1.586;2023-04-03T06:17:35;14.13;;;6.80;;
61373;SDS011;47242;48.158;-1.586;2023-04-03T06:20:02;9.45;;;5.38;;
61373;SDS011;47242;48.158;-1.586;2023-04-03T06:22:28;7.78;;;4.85;;
61373;SDS011;47242;48.158;-1.586;2023-04-03T06:24:55;6.38;;;4.97;;
61373;SDS011;47242;48.158;-1.586;2023-04-03T06:27:21;8.13;;;6.07;;
61373;SDS011;47242;48.158;-1.586;2023-04-03T06:29:47;7.97;;;4.80;;
61373;SDS011;47242;48.158;-1.586;2023-04-03T06:32:13;10.27;;;5.30;;
61373;SDS011;47242;48.158;-1.586;2023-04-03T06:34:40;13.88;;;5.70;;
61373;SDS011;47242;48.158;-1.586;2023-04-03T06:37:06;7.70;;;4.80;;
61373;SDS011;47242;48.158;-1.586;2023-04-03T06:39:35;5.97;;;4.75;;
61373;SDS011;47242;48.158;-1.586;2023-04-03T06:42:01;7.40;;;5.43;;
61373;SDS011;47242;48.158;-1.586;2023-04-03T06:44:27;6.70;;;5.05;;
61373;SDS011;47242;48.158;-1.586;2023-04-03T06:46:52;4.68;;;4.25;;
61373;SDS011;47242;48.158;-1.586;2023-04-03T06:49:19;9.90;;;5.53;;
61373;SDS011;47242;48.158;-1.586;2023-04-03T06:51:44;7.93;;;5.85;;
61373;SDS011;47242;48.158;-1.586;2023-04-03T06:54:10;9.45;;;5.80;;
61373;SDS011;47242;48.158;-1.586;2023-04-03T06:56:36;9.15;;;5.22;;
61373;SDS011;47242;48.158;-1.586;2023-04-03T06:59:02;11.45;;;6.07;;
61373;SDS011;47242;48.158;-1.586;2023-04-03T07:01:28;10.27;;;5.88;;
61373;SDS011;47242;48.158;-1.586;2023-04-03T07:03:55;6.82;;;5.07;;
61373;SDS011;47242;48.158;-1.586;2023-04-03T07:06:21;10.02;;;6.05;;
61373;SDS011;47242;48.158;-1.586;2023-04-03T07:08:46;7.55;;;5.68;;
61373;SDS011;47242;48.158;-1.586;2023-04-03T07:11:14;7.63;;;5.40;;
61373;SDS011;47242;48.158;-1.586;2023-04-03T07:13:40;7.53;;;5.97;;
61373;SDS011;47242;48.158;-1.586;2023-04-03T07:16:06;7.18;;;5.35;;
61373;SDS011;47242;48.158;-1.586;2023-04-03T07:18:33;7.32;;;5.90;;
61373;SDS011;47242;48.158;-1.586;2023-04-03T07:20:59;9.02;;;6.70;;
61373;SDS011;47242;48.158;-1.586;2023-04-03T07:23:25;10.35;;;6.55;;
61373;SDS011;47242;48.158;-1.586;2023-04-03T07:25:51;11.60;;;5.78;;
61373;SDS011;47242;48.158;-1.586;2023-04-03T07:28:17;9.02;;;5.43;;
61373;SDS011;47242;48.158;-1.586;2023-04-03T07:30:45;10.75;;;6.35;;
61373;SDS011;47242;48.158;-1.586;2023-04-03T07:33:13;8.88;;;6.07;;
61373;SDS011;47242;48.158;-1.586;2023-04-03T07:35:40;7.53;;;5.20;;
61373;SDS011;47242;48.158;-1.586;2023-04-03T07:38:06;8.88;;;6.68;;
61373;SDS011;47242;48.158;-1.586;2023-04-03T07:40:32;8.55;;;5.78;;
61373;SDS011;47242;48.158;-1.586;2023-04-03T07:42:58;17.05;;;8.45;;
61373;SDS011;47242;48.158;-1.586;2023-04-03T07:45:24;6.13;;;5.53;;
61373;SDS011;47242;48.158;-1.586;2023-04-03T07:47:50;8.68;;;6.30;;
61373;SDS011;47242;48.158;-1.586;2023-04-03T07:50:16;6.78;;;5.90;;
61373;SDS011;47242;48.158;-1.586;2023-04-03T07:52:42;9.18;;;7.03;;
61373;SDS011;47242;48.158;-1.586;2023-04-03T07:55:08;8.52;;;6.70;;
61373;SDS011;47242;48.158;-1.586;2023-04-03T07:57:34;18.00;;;5.97;;
61373;SDS011;47242;48.158;-1.586;2023-04-03T08:00:00;6.93;;;5.75;;
61373;SDS011;47242;48.158;-1.586;2023-04-03T08:02:26;8.93;;;5.72;;
61373;SDS011;47242;48.158;-1.586;2023-04-03T08:04:52;8.50;;;6.18;;
61373;SDS011;47242;48.158;-1.586;2023-04-03T08:07:17;10.00;;;6.15;;
61373;SDS011;47242;48.158;-1.586;2023-04-03T08:09:43;9.57;;;5.22;;
61373;SDS011;47242;48.158;-1.586;2023-04-03T08:12:09;9.27;;;6.03;;
61373;SDS011;47242;48.158;-1.586;2023-04-03T08:14:36;8.80;;;6.18;;
61373;SDS011;47242;48.158;-1.586;2023-04-03T08:17:02;9.27;;;6.80;;
61373;SDS011;47242;48.158;-1.586;2023-04-03T08:19:29;9.30;;;6.40;;
61373;SDS011;47242;48.158;-1.586;2023-04-03T08:21:55;9.15;;;6.32;;
61373;SDS011;47242;48.158;-1.586;2023-04-03T08:24:23;15.27;;;7.30;;
61373;SDS011;47242;48.158;-1.586;2023-04-03T08:26:49;8.20;;;5.45;;
61373;SDS011;47242;48.158;-1.586;2023-04-03T08:29:15;11.68;;;7.72;;
61373;SDS011;47242;48.158;-1.586;2023-04-03T08:31:40;10.95;;;6.88;;
61373;SDS011;47242;48.158;-1.586;2023-04-03T08:34:06;11.57;;;7.45;;
61373;SDS011;47242;48.158;-1.586;2023-04-03T08:36:31;13.38;;;7.00;;
61373;SDS011;47242;48.158;-1.586;2023-04-03T08:38:57;11.15;;;7.00;;
61373;SDS011;47242;48.158;-1.586;2023-04-03T08:41:31;11.05;;;8.75;;
61373;SDS011;47242;48.158;-1.586;2023-04-03T08:49:45;10.10;;;5.60;;
61373;SDS011;47242;48.158;-1.586;2023-04-03T08:54:57;13.10;;;7.25;;
61373;SDS011;47242;48.158;-1.586;2023-04-03T08:57:42;11.70;;;7.05;;
61373;SDS011;47242;48.158;-1.586;2023-04-03T09:03:12;9.88;;;6.25;;
61373;SDS011;47242;48.158;-1.586;2023-04-03T09:08:24;10.32;;;6.05;;
61373;SDS011;47242;48.158;-1.586;2023-04-03T09:11:06;13.40;;;8.05;;
61373;SDS011;47242;48.158;-1.586;2023-04-03T09:16:22;9.07;;;6.28;;
61373;SDS011;47242;48.158;-1.586;2023-04-03T09:19:23;13.75;;;6.93;;
61373;SDS011;47242;48.158;-1.586;2023-04-03T09:21:53;14.68;;;7.78;;
61373;SDS011;47242;48.158;-1.586;2023-04-03T09:24:34;12.00;;;6.50;;
61373;SDS011;47242;48.158;-1.586;2023-04-03T09:27:03;12.50;;;7.22;;
61373;SDS011;47242;48.158;-1.586;2023-04-03T09:29:33;11.10;;;6.97;;
61373;SDS011;47242;48.158;-1.586;2023-04-03T09:32:15;14.18;;;7.50;;
61373;SDS011;47242;48.158;-1.586;2023-04-03T09:34:53;15.07;;;8.50;;
61373;SDS011;47242;48.158;-1.586;2023-04-03T09:42:50;13.80;;;6.25;;
61373;SDS011;47242;48.158;-1.586;2023-04-03T09:45:25;11.93;;;7.32;;
61373;SDS011;47242;48.158;-1.586;2023-04-03T09:48:12;12.32;;;6.15;;
61373;SDS011;47242;48.158;-1.586;2023-04-03T09:58:45;12.80;;;7.05;;
61373;SDS011;47242;48.158;-1.586;2023-04-03T10:01:56;10.75;;;6.20;;
61373;SDS011;47242;48.158;-1.586;2023-04-03T10:06:34;11.68;;;6.35;;
61373;SDS011;47242;48.158;-1.586;2023-04-03T10:09:10;12.88;;;7.07;;
61373;SDS011;47242;48.158;-1.586;2023-04-03T10:14:35;11.30;;;7.03;;
61373;SDS011;47242;48.158;-1.586;2023-04-03T10:36:17;12.10;;;6.68;;
61373;SDS011;47242;48.158;-1.586;2023-04-03T10:39:02;9.68;;;6.45;;
61373;SDS011;47242;48.158;-1.586;2023-04-03T10:41:54;10.98;;;7.40;;
61373;SDS011;47242;48.158;-1.586;2023-04-03T10:47:10;9.30;;;6.20;;
61373;SDS011;47242;48.158;-1.586;2023-04-03T10:50:20;11.13;;;6.57;;
61373;SDS011;47242;48.158;-1.586;2023-04-03T10:55:33;12.05;;;7.72;;
61373;SDS011;47242;48.158;-1.586;2023-04-03T10:58:04;13.63;;;7.57;;
61373;SDS011;47242;48.158;-1.586;2023-04-03T11:00:44;11.77;;;7.10;;
61373;SDS011;47242;48.158;-1.586;2023-04-03T11:05:53;13.25;;;7.20;;
61373;SDS011;47242;48.158;-1.586;2023-04-03T11:11:00;11.93;;;6.57;;
61373;SDS011;47242;48.158;-1.586;2023-04-03T11:16:36;10.50;;;6.32;;
61373;SDS011;47242;48.158;-1.586;2023-04-03T11:19:12;10.52;;;6.57;;
61373;SDS011;47242;48.158;-1.586;2023-04-03T11:24:57;10.50;;;7.15;;
61373;SDS011;47242;48.158;-1.586;2023-04-03T11:27:41;9.13;;;6.18;;
61373;SDS011;47242;48.158;-1.586;2023-04-03T11:30:12;8.73;;;6.60;;
61373;SDS011;47242;48.158;-1.586;2023-04-03T11:33:03;10.15;;;7.30;;
61373;SDS011;47242;48.158;-1.586;2023-04-03T11:35:42;11.45;;;7.45;;
61373;SDS011;47242;48.158;-1.586;2023-04-03T11:38:18;8.10;;;5.63;;
61373;SDS011;47242;48.158;-1.586;2023-04-03T11:40:54;10.07;;;6.82;;
61373;SDS011;47242;48.158;-1.586;2023-04-03T11:46:03;9.15;;;5.55;;
61373;SDS011;47242;48.158;-1.586;2023-04-03T11:53:38;8.80;;;6.03;;
61373;SDS011;47242;48.158;-1.586;2023-04-03T11:56:38;7.53;;;5.43;;
61373;SDS011;47242;48.158;-1.586;2023-04-03T12:01:48;11.57;;;6.07;;
61373;SDS011;47242;48.158;-1.586;2023-04-03T12:04:26;10.50;;;5.32;;
61373;SDS011;47242;48.158;-1.586;2023-04-03T12:07:13;11.23;;;5.88;;
61373;SDS011;47242;48.158;-1.586;2023-04-03T12:12:22;10.27;;;5.97;;
61373;SDS011;47242;48.158;-1.586;2023-04-03T12:17:47;11.67;;;7.73;;
61373;SDS011;47242;48.158;-1.586;2023-04-03T12:25:52;9.02;;;6.25;;
61373;SDS011;47242;48.158;-1.586;2023-04-03T12:28:28;8.93;;;5.35;;
61373;SDS011;47242;48.158;-1.586;2023-04-03T12:30:53;13.20;;;6.80;;
61373;SDS011;47242;48.158;-1.586;2023-04-03T12:36:07;8.43;;;5.20;;
61373;SDS011;47242;48.158;-1.586;2023-04-03T12:46:52;7.75;;;5.43;;
61373;SDS011;47242;48.158;-1.586;2023-04-03T12:51:56;8.52;;;5.22;;
61373;SDS011;47242;48.158;-1.586;2023-04-03T12:54:38;8.73;;;5.50;;
61373;SDS011;47242;48.158;-1.586;2023-04-03T12:57:12;8.40;;;5.25;;
61373;SDS011;47242;48.158;-1.586;2023-04-03T12:59:42;6.63;;;4.60;;
61373;SDS011;47242;48.158;-1.586;2023-04-03T13:02:16;8.13;;;5.45;;
61373;SDS011;47242;48.158;-1.586;2023-04-03T13:04:57;9.20;;;6.22;;
61373;SDS011;47242;48.158;-1.586;2023-04-03T13:09:57;11.00;;;6.95;;
61373;SDS011;47242;48.158;-1.586;2023-04-03T13:12:44;11.32;;;6.55;;
61373;SDS011;47242;48.158;-1.586;2023-04-03T13:15:25;8.45;;;5.13;;
61373;SDS011;47242;48.158;-1.586;2023-04-03T13:17:53;8.82;;;5.95;;
61373;SDS011;47242;48.158;-1.586;2023-04-03T13:20:29;10.38;;;6.40;;
61373;SDS011;47242;48.158;-1.586;2023-04-03T13:23:03;8.27;;;5.97;;
61373;SDS011;47242;48.158;-1.586;2023-04-03T13:25:34;9.68;;;7.07;;
61373;SDS011;47242;48.158;-1.586;2023-04-03T13:28:03;9.55;;;6.13;;
61373;SDS011;47242;48.158;-1.586;2023-04-03T13:30:33;9.52;;;6.03;;
61373;SDS011;47242;48.158;-1.586;2023-04-03T13:33:02;10.95;;;6.18;;
61373;SDS011;47242;48.158;-1.586;2023-04-03T13:35:35;10.00;;;6.55;;
61373;SDS011;47242;48.158;-1.586;2023-04-03T13:38:19;8.95;;;6.35;;
61373;SDS011;47242;48.158;-1.586;2023-04-03T13:40:50;8.52;;;5.38;;
61373;SDS011;47242;48.158;-1.586;2023-04-03T13:43:19;7.88;;;5.38;;
61373;SDS011;47242;48.158;-1.586;2023-04-03T13:48:35;13.95;;;6.90;;
61373;SDS011;47242;48.158;-1.586;2023-04-03T13:53:43;12.68;;;6.53;;
61373;SDS011;47242;48.158;-1.586;2023-04-03T13:58:56;11.73;;;7.75;;
61373;SDS011;47242;48.158;-1.586;2023-04-03T14:01:24;8.25;;;5.97;;
61373;SDS011;47242;48.158;-1.586;2023-04-03T14:04:01;9.35;;;5.95;;
61373;SDS011;47242;48.158;-1.586;2023-04-03T14:06:35;10.13;;;6.28;;
61373;SDS011;47242;48.158;-1.586;2023-04-03T14:09:01;8.70;;;6.05;;
61373;SDS011;47242;48.158;-1.586;2023-04-03T14:11:28;6.47;;;5.85;;
61373;SDS011;47242;48.158;-1.586;2023-04-03T14:13:56;7.78;;;5.55;;
61373;SDS011;47242;48.158;-1.586;2023-04-03T14:16:26;8.63;;;5.38;;
61373;SDS011;47242;48.158;-1.586;2023-04-03T14:18:55;8.20;;;5.15;;
61373;SDS011;47242;48.158;-1.586;2023-04-03T14:21:21;8.63;;;5.32;;
61373;SDS011;47242;48.158;-1.586;2023-04-03T14:23:47;9.95;;;6.35;;
61373;SDS011;47242;48.158;-1.586;2023-04-03T14:26:15;7.80;;;5.30;;
61373;SDS011;47242;48.158;-1.586;2023-04-03T14:28:44;7.50;;;4.80;;
61373;SDS011;47242;48.158;-1.586;2023-04-03T14:31:11;9.13;;;5.65;;
61373;SDS011;47242;48.158;-1.586;2023-04-03T14:33:38;9.55;;;5.97;;
61373;SDS011;47242;48.158;-1.586;2023-04-03T14:36:14;5.82;;;4.70;;
61373;SDS011;47242;48.158;-1.586;2023-04-03T14:38:42;11.10;;;6.63;;
61373;SDS011;47242;48.158;-1.586;2023-04-03T14:41:13;9.45;;;5.40;;
61373;SDS011;47242;48.158;-1.586;2023-04-03T14:43:40;8.30;;;5.85;;
61373;SDS011;47242;48.158;-1.586;2023-04-03T14:46:14;9.35;;;5.50;;
61373;SDS011;47242;48.158;-1.586;2023-04-03T14:48:41;9.55;;;6.35;;
61373;SDS011;47242;48.158;-1.586;2023-04-03T14:51:09;7.13;;;4.90;;
61373;SDS011;47242;48.158;-1.586;2023-04-03T14:53:36;7.80;;;5.70;;
61373;SDS011;47242;48.158;-1.586;2023-04-03T14:56:04;8.25;;;5.65;;
61373;SDS011;47242;48.158;-1.586;2023-04-03T14:58:40;7.60;;;5.47;;
61373;SDS011;47242;48.158;-1.586;2023-04-03T15:01:06;8.10;;;5.57;;
61373;SDS011;47242;48.158;-1.586;2023-04-03T15:03:33;8.95;;;5.28;;
61373;SDS011;47242;48.158;-1.586;2023-04-03T15:05:59;8.00;;;5.43;;
61373;SDS011;47242;48.158;-1.586;2023-04-03T15:08:25;6.22;;;4.65;;
61373;SDS011;47242;48.158;-1.586;2023-04-03T15:10:54;6.78;;;5.25;;
61373;SDS011;47242;48.158;-1.586;2023-04-03T15:13:21;8.45;;;4.82;;
61373;SDS011;47242;48.158;-1.586;2023-04-03T15:15:48;5.95;;;4.85;;
61373;SDS011;47242;48.158;-1.586;2023-04-03T15:18:17;8.98;;;5.50;;
61373;SDS011;47242;48.158;-1.586;2023-04-03T15:20:46;9.10;;;5.18;;
61373;SDS011;47242;48.158;-1.586;2023-04-03T15:23:13;8.13;;;5.50;;
61373;SDS011;47242;48.158;-1.586;2023-04-03T15:25:40;7.53;;;4.57;;
61373;SDS011;47242;48.158;-1.586;2023-04-03T15:28:08;8.32;;;5.95;;
61373;SDS011;47242;48.158;-1.586;2023-04-03T15:30:47;7.95;;;4.70;;
61373;SDS011;47242;48.158;-1.586;2023-04-03T15:33:12;6.40;;;4.50;;
61373;SDS011;47242;48.158;-1.586;2023-04-03T15:35:38;7.93;;;4.93;;
61373;SDS011;47242;48.158;-1.586;2023-04-03T15:38:03;7.10;;;4.93;;
61373;SDS011;47242;48.158;-1.586;2023-04-03T15:40:29;5.82;;;4.60;;
61373;SDS011;47242;48.158;-1.586;2023-04-03T15:42:55;8.70;;;4.80;;
61373;SDS011;47242;48.158;-1.586;2023-04-03T15:45:20;8.43;;;4.85;;
61373;SDS011;47242;48.158;-1.586;2023-04-03T15:47:46;7.55;;;4.78;;
61373;SDS011;47242;48.158;-1.586;2023-04-03T15:50:12;7.90;;;5.15;;
61373;SDS011;47242;48.158;-1.586;2023-04-03T15:52:38;9.05;;;4.90;;
61373;SDS011;47242;48.158;-1.586;2023-04-03T15:55:04;8.38;;;5.63;;
61373;SDS011;47242;48.158;-1.586;2023-04-03T15:57:31;8.18;;;5.65;;
61373;SDS011;47242;48.158;-1.586;2023-04-03T15:59:56;7.10;;;4.80;;
61373;SDS011;47242;48.158;-1.586;2023-04-03T16:02:22;9.05;;;5.18;;
61373;SDS011;47242;48.158;-1.586;2023-04-03T16:04:48;6.57;;;4.90;;
61373;SDS011;47242;48.158;-1.586;2023-04-03T16:07:14;7.07;;;4.93;;
61373;SDS011;47242;48.158;-1.586;2023-04-03T16:09:40;9.10;;;6.38;;
61373;SDS011;47242;48.158;-1.586;2023-04-03T16:12:05;7.00;;;5.53;;
61373;SDS011;47242;48.158;-1.586;2023-04-03T16:14:31;7.07;;;5.25;;
61373;SDS011;47242;48.158;-1.586;2023-04-03T16:16:57;7.65;;;5.65;;
61373;SDS011;47242;48.158;-1.586;2023-04-03T16:19:24;8.55;;;5.60;;
61373;SDS011;47242;48.158;-1.586;2023-04-03T16:21:49;7.13;;;5.07;;
61373;SDS011;47242;48.158;-1.586;2023-04-03T16:24:15;9.15;;;4.93;;
61373;SDS011;47242;48.158;-1.586;2023-04-03T16:26:40;6.57;;;4.47;;
61373;SDS011;47242;48.158;-1.586;2023-04-03T16:29:06;8.40;;;4.13;;
61373;SDS011;47242;48.158;-1.586;2023-04-03T16:31:32;7.60;;;4.93;;
61373;SDS011;47242;48.158;-1.586;2023-04-03T16:33:58;8.32;;;4.93;;
61373;SDS011;47242;48.158;-1.586;2023-04-03T16:36:25;5.68;;;4.82;;
61373;SDS011;47242;48.158;-1.586;2023-04-03T16:38:51;8.25;;;5.20;;
61373;SDS011;47242;48.158;-1.586;2023-04-03T16:41:17;8.32;;;5.50;;
61373;SDS011;47242;48.158;-1.586;2023-04-03T16:43:42;7.13;;;4.25;;
61373;SDS011;47242;48.158;-1.586;2023-04-03T16:46:08;6.28;;;4.28;;
61373;SDS011;47242;48.158;-1.586;2023-04-03T16:48:34;6.70;;;4.65;;
61373;SDS011;47242;48.158;-1.586;2023-04-03T16:51:00;7.75;;;4.38;;
61373;SDS011;47242;48.158;-1.586;2023-04-03T16:53:26;5.35;;;4.38;;
61373;SDS011;47242;48.158;-1.586;2023-04-03T16:55:52;9.38;;;5.00;;
61373;SDS011;47242;48.158;-1.586;2023-04-03T16:58:18;7.78;;;4.65;;
61373;SDS011;47242;48.158;-1.586;2023-04-03T17:00:44;6.65;;;4.35;;
61373;SDS011;47242;48.158;-1.586;2023-04-03T17:03:12;6.95;;;4.15;;
61373;SDS011;47242;48.158;-1.586;2023-04-03T17:05:37;6.25;;;4.35;;
61373;SDS011;47242;48.158;-1.586;2023-04-03T17:08:03;5.70;;;3.75;;
61373;SDS011;47242;48.158;-1.586;2023-04-03T17:10:29;5.72;;;4.45;;
61373;SDS011;47242;48.158;-1.586;2023-04-03T17:12:55;8.73;;;4.28;;
61373;SDS011;47242;48.158;-1.586;2023-04-03T17:15:21;6.38;;;4.88;;
61373;SDS011;47242;48.158;-1.586;2023-04-03T17:17:47;7.20;;;5.03;;
61373;SDS011;47242;48.158;-1.586;2023-04-03T17:20:16;8.00;;;5.03;;
61373;SDS011;47242;48.158;-1.586;2023-04-03T17:22:41;7.93;;;4.70;;
61373;SDS011;47242;48.158;-1.586;2023-04-03T17:25:07;10.35;;;5.15;;
61373;SDS011;47242;48.158;-1.586;2023-04-03T17:27:36;5.60;;;4.25;;
61373;SDS011;47242;48.158;-1.586;2023-04-03T17:30:03;6.40;;;4.53;;
61373;SDS011;47242;48.158;-1.586;2023-04-03T17:32:30;7.40;;;4.75;;
61373;SDS011;47242;48.158;-1.586;2023-04-03T17:34:55;8.18;;;5.05;;
61373;SDS011;47242;48.158;-1.586;2023-04-03T17:37:21;9.02;;;4.65;;
61373;SDS011;47242;48.158;-1.586;2023-04-03T17:39:47;7.65;;;5.00;;
61373;SDS011;47242;48.158;-1.586;2023-04-03T17:42:13;8.68;;;5.55;;
61373;SDS011;47242;48.158;-1.586;2023-04-03T17:44:40;9.45;;;6.45;;
61373;SDS011;47242;48.158;-1.586;2023-04-03T17:47:05;9.20;;;5.82;;
61373;SDS011;47242;48.158;-1.586;2023-04-03T17:49:31;9.90;;;6.15;;
61373;SDS011;47242;48.158;-1.586;2023-04-03T17:51:57;7.60;;;4.88;;
61373;SDS011;47242;48.158;-1.586;2023-04-03T17:54:23;7.95;;;5.45;;
61373;SDS011;47242;48.158;-1.586;2023-04-03T17:56:49;8.45;;;5.90;;
61373;SDS011;47242;48.158;-1.586;2023-04-03T17:59:15;8.45;;;5.70;;
61373;SDS011;47242;48.158;-1.586;2023-04-03T18:01:42;8.90;;;6.05;;
61373;SDS011;47242;48.158;-1.586;2023-04-03T18:04:09;9.35;;;5.72;;
61373;SDS011;47242;48.158;-1.586;2023-04-03T18:06:45;8.85;;;6.07;;
61373;SDS011;47242;48.158;-1.586;2023-04-03T18:09:29;8.30;;;5.93;;
61373;SDS011;47242;48.158;-1.586;2023-04-03T18:11:57;11.95;;;6.60;;
61373;SDS011;47242;48.158;-1.586;2023-04-03T18:14:26;9.40;;;6.40;;
61373;SDS011;47242;48.158;-1.586;2023-04-03T18:16:53;10.27;;;6.05;;
61373;SDS011;47242;48.158;-1.586;2023-04-03T18:19:21;8.23;;;5.75;;
61373;SDS011;47242;48.158;-1.586;2023-04-03T18:21:47;10.65;;;6.82;;
61373;SDS011;47242;48.158;-1.586;2023-04-03T18:24:14;10.93;;;5.97;;
61373;SDS011;47242;48.158;-1.586;2023-04-03T18:26:42;10.02;;;6.53;;
61373;SDS011;47242;48.158;-1.586;2023-04-03T18:29:11;10.13;;;6.78;;
61373;SDS011;47242;48.158;-1.586;2023-04-03T18:31:37;13.20;;;6.88;;
61373;SDS011;47242;48.158;-1.586;2023-04-03T18:34:07;10.93;;;6.93;;
61373;SDS011;47242;48.158;-1.586;2023-04-03T18:36:33;13.27;;;6.97;;
61373;SDS011;47242;48.158;-1.586;2023-04-03T18:38:58;13.02;;;7.70;;
61373;SDS011;47242;48.158;-1.586;2023-04-03T18:41:26;9.85;;;7.43;;
61373;SDS011;47242;48.158;-1.586;2023-04-03T18:43:55;14.15;;;7.53;;
61373;SDS011;47242;48.158;-1.586;2023-04-03T18:46:23;10.38;;;7.35;;
61373;SDS011;47242;48.158;-1.586;2023-04-03T18:48:49;12.82;;;7.45;;
61373;SDS011;47242;48.158;-1.586;2023-04-03T18:51:16;12.77;;;8.02;;
61373;SDS011;47242;48.158;-1.586;2023-04-03T18:53:42;13.88;;;8.35;;
61373;SDS011;47242;48.158;-1.586;2023-04-03T18:56:07;14.55;;;8.32;;
61373;SDS011;47242;48.158;-1.586;2023-04-03T18:58:33;12.90;;;7.60;;
61373;SDS011;47242;48.158;-1.586;2023-04-03T19:00:59;12.25;;;8.05;;
61373;SDS011;47242;48.158;-1.586;2023-04-03T19:03:25;13.98;;;8.20;;
61373;SDS011;47242;48.158;-1.586;2023-04-03T19:05:51;11.00;;;8.02;;
61373;SDS011;47242;48.158;-1.586;2023-04-03T19:08:17;13.27;;;9.23;;
61373;SDS011;47242;48.158;-1.586;2023-04-03T19:10:43;18.10;;;9.35;;
61373;SDS011;47242;48.158;-1.586;2023-04-03T19:13:08;15.00;;;8.93;;
61373;SDS011;47242;48.158;-1.586;2023-04-03T19:15:34;16.60;;;9.30;;
61373;SDS011;47242;48.158;-1.586;2023-04-03T19:18:00;13.23;;;9.18;;
61373;SDS011;47242;48.158;-1.586;2023-04-03T19:20:25;15.98;;;8.38;;
61373;SDS011;47242;48.158;-1.586;2023-04-03T19:22:51;12.45;;;7.95;;
61373;SDS011;47242;48.158;-1.586;2023-04-03T19:25:19;12.70;;;7.88;;
61373;SDS011;47242;48.158;-1.586;2023-04-03T19:27:45;14.55;;;8.73;;
61373;SDS011;47242;48.158;-1.586;2023-04-03T19:30:11;12.93;;;8.52;;
61373;SDS011;47242;48.158;-1.586;2023-04-03T19:32:37;15.25;;;8.13;;
61373;SDS011;47242;48.158;-1.586;2023-04-03T19:35:03;13.70;;;8.20;;
61373;SDS011;47242;48.158;-1.586;2023-04-03T19:37:29;18.17;;;9.13;;
61373;SDS011;47242;48.158;-1.586;2023-04-03T19:39:55;15.43;;;8.60;;
61373;SDS011;47242;48.158;-1.586;2023-04-03T19:42:21;16.52;;;9.30;;
61373;SDS011;47242;48.158;-1.586;2023-04-03T19:44:47;14.85;;;9.07;;
61373;SDS011;47242;48.158;-1.586;2023-04-03T19:47:13;12.30;;;8.48;;
61373;SDS011;47242;48.158;-1.586;2023-04-03T19:49:41;12.95;;;8.57;;
61373;SDS011;47242;48.158;-1.586;2023-04-03T19:52:07;14.77;;;8.32;;
61373;SDS011;47242;48.158;-1.586;2023-04-03T19:54:33;11.85;;;8.48;;
61373;SDS011;47242;48.158;-1.586;2023-04-03T19:56:59;18.50;;;8.45;;
61373;SDS011;47242;48.158;-1.586;2023-04-03T19:59:24;14.05;;;7.85;;
61373;SDS011;47242;48.158;-1.586;2023-04-03T20:01:50;18.23;;;9.65;;
61373;SDS011;47242;48.158;-1.586;2023-04-03T20:04:16;12.55;;;8.15;;
61373;SDS011;47242;48.158;-1.586;2023-04-03T20:06:42;14.70;;;9.63;;
61373;SDS011;47242;48.158;-1.586;2023-04-03T20:09:08;14.60;;;9.38;;
61373;SDS011;47242;48.158;-1.586;2023-04-03T20:11:34;15.95;;;9.80;;
61373;SDS011;47242;48.158;-1.586;2023-04-03T20:14:01;13.77;;;8.30;;
61373;SDS011;47242;48.158;-1.586;2023-04-03T20:16:28;17.00;;;10.10;;
61373;SDS011;47242;48.158;-1.586;2023-04-03T20:18:54;12.40;;;8.52;;
61373;SDS011;47242;48.158;-1.586;2023-04-03T20:21:20;15.02;;;8.35;;
61373;SDS011;47242;48.158;-1.586;2023-04-03T20:23:53;20.35;;;9.43;;
61373;SDS011;47242;48.158;-1.586;2023-04-03T20:26:20;15.27;;;9.88;;
61373;SDS011;47242;48.158;-1.586;2023-04-03T20:28:52;12.73;;;8.70;;
61373;SDS011;47242;48.158;-1.586;2023-04-03T20:31:20;15.90;;;8.70;;
61373;SDS011;47242;48.158;-1.586;2023-04-03T20:33:47;13.52;;;8.27;;
61373;SDS011;47242;48.158;-1.586;2023-04-03T20:36:14;16.50;;;9.63;;
61373;SDS011;47242;48.158;-1.586;2023-04-03T20:38:40;13.48;;;9.18;;
61373;SDS011;47242;48.158;-1.586;2023-04-03T20:41:07;17.15;;;9.75;;
61373;SDS011;47242;48.158;-1.586;2023-04-03T20:43:34;13.82;;;9.15;;
61373;SDS011;47242;48.158;-1.586;2023-04-03T20:46:00;16.08;;;9.55;;
61373;SDS011;47242;48.158;-1.586;2023-04-03T20:48:27;14.52;;;9.00;;
61373;SDS011;47242;48.158;-1.586;2023-04-03T20:50:54;15.93;;;9.55;;
61373;SDS011;47242;48.158;-1.586;2023-04-03T20:53:20;18.17;;;9.35;;
61373;SDS011;47242;48.158;-1.586;2023-04-03T20:55:55;16.88;;;9.98;;
61373;SDS011;47242;48.158;-1.586;2023-04-03T20:58:23;16.05;;;9.43;;
61373;SDS011;47242;48.158;-1.586;2023-04-03T21:00:58;18.02;;;10.75;;
61373;SDS011;47242;48.158;-1.586;2023-04-03T21:03:25;16.48;;;10.68;;